NWWWNVSS

Guest
Details From NWWW - Noumea La Tontouta
To NVSS - Santo Pekoa Intl
Flight Number -
Tags generated
Created
Modified
Stats Distance 428 nm / 792 km
Max Altitude 35,000 ft / 10,668 m
Waypoints 7
Social Downloads 0
Likes 0
Share VATSIM

Download

Looking for another format? Having issues loading an existing format? Contact us
Advertisement - Login to hide

Notes

Basic altitude profile: - Ascent Rate: 2500ft/min - Ascent Speed: 250kts - Cruise Altitude: 35000ft - Cruise Speed: 420kts - Descent Rate: 1500ft/min - Descent Speed: 250kts

Route

NWWW LTO B590 VLI 3E103 CB NVSS

ID Type Via Altitude Latitude Longitude Leg Dist Tot Dist Heading (true) Name
O NWWW APT - 0 ft / 0 m -22.01453˚ 166.21302˚ - 0 nm - Noumea La Tontouta
LTO VOR - 200 ft / 61 m -22.00511˚ 166.21178˚ 0 nm 0 nm 353° / 353° LA TONTOUTA VOR-DME
NIPOG FIX B590 (AWY-HI) 35,000 ft / 10,668 m -19.50000˚ 167.39333˚ 164 nm 165 nm 24° / 24° -
LEDIT FIX B590 (AWY-HI) 35,000 ft / 10,668 m -18.54500˚ 167.83667˚ 62 nm 227 nm 24° / 24° -
VLI VOR B590 (AWY-HI) 29,500 ft / 8,992 m -17.66222˚ 168.24389˚ 57 nm 285 nm 24° / 24° BAUERFIELD VOR-DME
CB NDB 3E103 (AWY-HI) 9,500 ft / 2,896 m -16.94772˚ 167.91175˚ 46 nm 332 nm 336° / 336° -
O NVSS APT - 0 ft / 0 m -15.50456˚ 167.21969˚ 95 nm 427 nm 335° / 335° Santo Pekoa Intl

Altitude Profile

Advertisement - Login to hide

Weather


0- 5 10 15 20 25 30 35+ Temperature / ° C

Clouds and Precipitation
Forecast for 2017-12-12 18:00 UTC. Updated 34 minutes ago

Ground ~20,000 ft ~40,000 ft Winds

NWWW

Details ICAO NWWW (NOU)
Name Noumea La Tontouta
Region New Caledonia
Timezone Pacific/Noumea (UTC+11.0)
Stats Elevation 51 ft / 16 m (AMSL)
Location -22.014529° 166.213022°
Runways 1
Magnetic Variation 12.334° E

METAR

NWWW 121730Z AUTO 08002KT CAVOK 24/21 Q1008 NOSIG

Decode

TAF

TAF NWWW 121100Z 1212/1312 VRB02KT 9999 FEW022 SCT050 BKN063 PROB30 TEMPO 1212/1218 SHRA SCT020TCU BECMG 1222/1224 24010KT PROB40 TEMPO 1222/1309 VRB10G20KT 4000 SHRA SCT020CB

Decode

Departure Runways

ID Width Length Bearing (true) Bearing (mag) Surface Threshold Offset Overrun Length
11 148 ft / 45 m 10,666 ft / 3,251 m 121.21° 108.88° Asphalt 0 ft / 0 m 338 ft / 103 m
29 148 ft / 45 m 10,666 ft / 3,251 m 301.19° 288.86° Asphalt 0 ft / 0 m 354 ft / 108 m

NVSS

Details ICAO NVSS (SON)
Name Santo Pekoa Intl
Region Vanuatu
Timezone Pacific/Efate (UTC+11.0)
Stats Elevation 184 ft / 56 m (AMSL)
Location -15.504563° 167.219688°
Runways 1
Magnetic Variation 10.922° E

METAR

Not found

TAF

TAF NVSS 121000Z 1212/1312 VRB03KT 9999 BKN020 OVC110 PROB30 INTER 1212/1218 9000 -SHRA BKN018 OVC100

Decode

Destination Runways

ID Width Length Bearing (true) Bearing (mag) Surface Threshold Offset Overrun Length
12 98 ft / 30 m 6,569 ft / 2,002 m 129.30° 118.38° Asphalt 0 ft / 0 m 203 ft / 62 m
30 98 ft / 30 m 6,569 ft / 2,002 m 309.30° 298.38° Asphalt 0 ft / 0 m 194 ft / 59 m